createdAt,value
2023-04-06T00:02:26.898Z,3.10
2023-04-06T00:05:10.089Z,2.70
2023-04-06T00:07:53.755Z,2.80
2023-04-06T00:10:36.729Z,3.70
2023-04-06T00:13:21.075Z,5.05
2023-04-06T00:16:03.847Z,5.28
2023-04-06T00:18:46.953Z,3.90
2023-04-06T00:21:29.699Z,4.10
2023-04-06T00:24:12.409Z,3.63
2023-04-06T00:26:55.123Z,3.97
2023-04-06T00:29:39.691Z,3.70
2023-04-06T00:32:23.020Z,3.20
2023-04-06T00:35:06.096Z,2.92
2023-04-06T00:37:49.992Z,3.00
2023-04-06T00:40:33.771Z,2.83
2023-04-06T00:43:16.756Z,2.97
2023-04-06T00:46:02.189Z,2.83
2023-04-06T00:48:44.984Z,2.97
2023-04-06T00:51:27.672Z,2.70
2023-04-06T00:54:10.554Z,2.53
2023-04-06T00:56:53.380Z,2.70
2023-04-06T00:59:36.982Z,3.00
2023-04-06T01:02:25.336Z,2.65
2023-04-06T01:05:09.525Z,2.70
2023-04-06T01:08:03.024Z,2.85
2023-04-06T01:10:45.787Z,3.08
2023-04-06T01:13:40.285Z,2.45
2023-04-06T01:16:29.159Z,3.33
2023-04-06T01:19:24.648Z,3.17
2023-04-06T01:22:09.500Z,3.00
2023-04-06T01:25:02.625Z,3.20
2023-04-06T01:28:02.292Z,3.50
2023-04-06T01:31:05.676Z,3.05
2023-04-06T01:34:04.411Z,2.95
2023-04-06T01:36:47.119Z,3.00
2023-04-06T01:39:41.759Z,3.33
2023-04-06T01:42:27.117Z,3.47
2023-04-06T01:45:10.624Z,3.10
2023-04-06T01:47:54.058Z,3.15
2023-04-06T01:50:40.280Z,3.40
2023-04-06T01:53:24.366Z,2.85
2023-04-06T01:56:08.909Z,2.90
2023-04-06T01:59:00.852Z,2.88
2023-04-06T02:01:51.237Z,2.80
2023-04-06T02:04:34.331Z,3.20
2023-04-06T02:07:25.241Z,3.05
2023-04-06T02:10:13.276Z,2.90
2023-04-06T02:12:56.149Z,3.20
2023-04-06T02:15:43.727Z,3.17
2023-04-06T02:18:26.435Z,3.05
2023-04-06T02:21:09.077Z,2.80
2023-04-06T02:23:52.264Z,3.08
2023-04-06T02:26:35.023Z,2.80
2023-04-06T02:29:17.754Z,3.58
2023-04-06T02:32:01.977Z,2.90
2023-04-06T02:34:46.813Z,3.15
2023-04-06T02:37:30.035Z,2.80
2023-04-06T02:40:12.888Z,2.90
2023-04-06T02:42:55.649Z,3.08
2023-04-06T02:45:44.516Z,2.90
2023-04-06T02:48:29.342Z,2.90
2023-04-06T02:51:12.015Z,3.00
2023-04-06T02:53:56.380Z,2.78
2023-04-06T02:56:39.287Z,3.00
2023-04-06T02:59:22.738Z,2.85
2023-04-06T03:02:26.021Z,3.30
2023-04-06T03:05:14.090Z,2.70
2023-04-06T03:07:59.437Z,3.08
2023-04-06T03:10:52.396Z,2.83
2023-04-06T03:13:35.437Z,3.05
2023-04-06T03:16:18.259Z,3.10
2023-04-06T03:19:01.259Z,3.05
2023-04-06T03:21:46.668Z,2.75
2023-04-06T03:24:30.293Z,2.97
2023-04-06T03:27:12.951Z,3.03
2023-04-06T03:29:56.837Z,3.00
2023-04-06T03:32:46.683Z,3.17
2023-04-06T03:35:29.450Z,2.90
2023-04-06T03:38:14.942Z,2.85
2023-04-06T03:40:57.652Z,3.10
2023-04-06T03:43:42.974Z,3.63
2023-04-06T03:46:25.967Z,3.67
2023-04-06T03:49:11.421Z,2.92
2023-04-06T03:51:54.834Z,2.67
2023-04-06T03:54:38.925Z,2.67
2023-04-06T03:57:21.609Z,3.10
2023-04-06T04:00:04.504Z,3.05
2023-04-06T04:02:55.448Z,3.30
2023-04-06T04:05:38.197Z,3.20
2023-04-06T04:08:21.038Z,3.63
2023-04-06T04:11:05.175Z,3.25
2023-04-06T04:13:48.523Z,3.35
2023-04-06T04:16:31.388Z,3.60
2023-04-06T04:19:14.131Z,3.40
2023-04-06T04:21:56.883Z,3.50
2023-04-06T04:24:47.439Z,3.55
2023-04-06T04:27:32.418Z,4.07
2023-04-06T04:30:15.690Z,3.90
2023-04-06T04:32:58.734Z,4.10
2023-04-06T04:35:41.589Z,3.70
2023-04-06T04:38:26.246Z,3.83
2023-04-06T04:41:11.637Z,3.50
2023-04-06T04:43:58.931Z,3.85
2023-04-06T04:46:43.830Z,3.53
2023-04-06T04:49:27.960Z,3.25
2023-04-06T04:52:11.806Z,3.80
2023-04-06T04:55:11.703Z,3.70
2023-04-06T04:57:56.669Z,3.90
2023-04-06T05:00:50.864Z,3.80
2023-04-06T05:03:34.908Z,3.78
2023-04-06T05:06:21.589Z,3.80
2023-04-06T05:09:04.765Z,3.83
2023-04-06T05:11:47.650Z,4.07
2023-04-06T05:14:30.717Z,3.95
2023-04-06T05:17:15.959Z,4.53
2023-04-06T05:19:58.754Z,3.85
2023-04-06T05:22:43.298Z,4.25
2023-04-06T05:25:27.663Z,4.05
2023-04-06T05:28:15.207Z,4.40
2023-04-06T05:30:58.152Z,3.50
2023-04-06T05:33:44.084Z,4.30
2023-04-06T05:36:29.559Z,4.22
2023-04-06T05:39:13.382Z,4.35
2023-04-06T05:42:07.835Z,4.10
2023-04-06T05:45:04.532Z,4.35
2023-04-06T05:47:48.517Z,4.07
2023-04-06T05:50:51.854Z,4.20
2023-04-06T05:53:38.976Z,4.07
2023-04-06T05:56:21.811Z,3.70
2023-04-06T05:59:04.611Z,4.05
2023-04-06T06:01:48.034Z,4.15
2023-04-06T06:04:32.261Z,4.20
2023-04-06T06:07:16.652Z,4.30
2023-04-06T06:10:05.006Z,4.00
2023-04-06T06:12:51.934Z,3.70
2023-04-06T06:15:34.724Z,4.80
2023-04-06T06:18:18.427Z,4.57
2023-04-06T06:21:02.280Z,4.15
2023-04-06T06:23:48.297Z,4.35
2023-04-06T06:26:33.495Z,3.80
2023-04-06T06:29:16.734Z,4.38
2023-04-06T06:31:59.962Z,4.32
2023-04-06T06:34:43.243Z,3.90
2023-04-06T06:37:28.235Z,4.50
2023-04-06T06:40:17.030Z,3.95
2023-04-06T06:43:01.093Z,4.75
2023-04-06T06:46:04.150Z,4.63
2023-04-06T06:48:47.031Z,4.50
2023-04-06T06:51:29.853Z,4.88
2023-04-06T06:54:12.658Z,4.50
2023-04-06T06:56:56.868Z,4.75
2023-04-06T06:59:39.931Z,4.82
2023-04-06T07:02:22.993Z,4.90
2023-04-06T07:05:15.995Z,4.70
2023-04-06T07:08:07.095Z,4.30
2023-04-06T07:10:51.348Z,5.03
2023-04-06T07:13:36.279Z,4.80
2023-04-06T07:16:19.101Z,4.55
2023-04-06T07:19:01.890Z,4.57
2023-04-06T07:21:44.679Z,4.13
2023-04-06T07:24:27.482Z,4.10
2023-04-06T07:27:10.284Z,3.55
2023-04-06T07:29:54.517Z,3.92
2023-04-06T07:32:37.742Z,3.58
2023-04-06T07:35:20.980Z,3.45
2023-04-06T07:38:03.951Z,3.47
2023-04-06T07:40:47.654Z,3.20
2023-04-06T07:43:30.465Z,3.22
2023-04-06T07:46:14.746Z,3.10
2023-04-06T07:48:58.696Z,3.38
2023-04-06T07:51:41.758Z,3.47
2023-04-06T07:54:24.590Z,3.25
2023-04-06T07:57:07.286Z,3.13
2023-04-06T07:59:49.984Z,3.30
2023-04-06T08:02:34.862Z,2.80
2023-04-06T08:05:18.889Z,2.92
2023-04-06T08:08:01.613Z,2.90
2023-04-06T08:10:44.383Z,3.00
2023-04-06T08:13:27.109Z,3.38
2023-04-06T08:16:09.927Z,3.20
2023-04-06T08:18:54.061Z,3.03
2023-04-06T08:21:36.925Z,2.63
2023-04-06T08:24:19.649Z,2.60
2023-04-06T08:27:02.452Z,2.72
2023-04-06T08:29:45.141Z,2.55
2023-04-06T08:32:27.958Z,2.17
2023-04-06T08:35:12.172Z,2.35
2023-04-06T08:37:54.920Z,2.53
2023-04-06T08:40:40.586Z,2.65
2023-04-06T08:43:24.703Z,2.45
2023-04-06T08:46:07.701Z,2.28
2023-04-06T08:48:50.897Z,2.53
2023-04-06T08:51:34.996Z,2.75
2023-04-06T08:54:17.809Z,2.90
2023-04-06T08:57:01.235Z,2.15
2023-04-06T08:59:44.221Z,2.92
2023-04-06T09:02:27.242Z,2.33
2023-04-06T09:05:10.769Z,2.47
2023-04-06T09:07:54.864Z,2.67
2023-04-06T09:10:37.738Z,2.55
2023-04-06T09:13:20.546Z,2.30
2023-04-06T09:16:03.875Z,2.60
2023-04-06T09:18:46.952Z,2.65
2023-04-06T09:21:29.652Z,2.35
2023-04-06T09:24:13.694Z,2.67
2023-04-06T09:26:56.477Z,2.47
2023-04-06T09:29:39.181Z,2.22
2023-04-06T09:32:21.947Z,2.63
2023-04-06T09:35:08.349Z,2.42
2023-04-06T09:37:51.683Z,2.47
2023-04-06T09:40:35.857Z,2.50
2023-04-06T09:43:25.692Z,2.20
2023-04-06T09:46:08.448Z,2.08
2023-04-06T09:48:51.708Z,2.40
2023-04-06T09:51:39.826Z,2.20
2023-04-06T09:54:23.670Z,2.50
2023-04-06T09:57:10.400Z,2.33
2023-04-06T09:59:58.955Z,2.20
2023-04-06T10:02:46.911Z,2.22
2023-04-06T10:05:33.889Z,2.08
2023-04-06T10:08:17.416Z,2.47
2023-04-06T10:11:01.974Z,2.33
2023-04-06T10:13:48.111Z,2.60
2023-04-06T10:16:31.496Z,2.40
2023-04-06T10:19:15.577Z,2.60
2023-04-06T10:21:59.909Z,3.00
2023-04-06T10:24:42.596Z,2.70
2023-04-06T10:27:31.850Z,3.03
2023-04-06T10:30:17.545Z,3.22
2023-04-06T10:33:00.413Z,3.33
2023-04-06T10:35:43.292Z,2.58
2023-04-06T10:38:36.288Z,2.72
2023-04-06T10:41:21.560Z,2.80
2023-04-06T10:44:04.694Z,2.65
2023-04-06T10:46:56.669Z,2.65
2023-04-06T10:49:39.425Z,2.38
2023-04-06T10:52:22.170Z,2.58
2023-04-06T10:55:05.523Z,3.10
2023-04-06T10:57:48.418Z,3.17
2023-04-06T11:00:39.633Z,3.00
2023-04-06T11:03:31.362Z,3.60
2023-04-06T11:06:19.638Z,3.42
2023-04-06T11:09:02.365Z,4.05
2023-04-06T11:11:45.338Z,3.15
2023-04-06T11:14:28.483Z,3.30
2023-04-06T11:17:11.382Z,3.33
2023-04-06T11:19:55.599Z,3.95
2023-04-06T11:22:38.368Z,3.25
2023-04-06T11:25:21.234Z,3.88
2023-04-06T11:28:04.326Z,4.25
2023-04-06T11:30:47.514Z,3.72
2023-04-06T11:33:31.425Z,3.83
2023-04-06T11:36:16.589Z,4.30
2023-04-06T11:38:59.716Z,4.68
2023-04-06T11:41:42.759Z,4.43
2023-04-06T11:44:33.693Z,4.38
2023-04-06T11:47:16.537Z,4.03
2023-04-06T11:50:07.380Z,4.70
2023-04-06T11:52:59.635Z,4.82
2023-04-06T11:55:46.308Z,4.00
2023-04-06T11:58:29.035Z,4.95
2023-04-06T12:01:11.722Z,4.82
2023-04-06T12:03:54.765Z,5.03
2023-04-06T12:06:37.617Z,4.68
2023-04-06T12:09:22.012Z,5.40
2023-04-06T12:12:04.921Z,4.30
2023-04-06T12:14:47.782Z,4.55
2023-04-06T12:17:30.707Z,4.90
2023-04-06T12:20:25.358Z,4.80
2023-04-06T12:23:09.548Z,4.43
2023-04-06T12:25:53.938Z,4.55
2023-04-06T12:28:37.231Z,4.65
2023-04-06T12:31:20.506Z,4.40
2023-04-06T12:34:04.290Z,3.95
2023-04-06T12:36:47.173Z,4.53
2023-04-06T12:39:30.019Z,3.78
2023-04-06T12:42:14.859Z,3.90
2023-04-06T12:44:57.688Z,4.35
2023-04-06T12:47:40.538Z,4.38
2023-04-06T12:50:23.427Z,4.35
2023-04-06T12:53:06.313Z,3.75
2023-04-06T12:55:49.368Z,4.35
2023-04-06T12:58:34.457Z,3.80
2023-04-06T13:01:17.399Z,4.03
2023-04-06T13:04:00.333Z,4.38
2023-04-06T13:06:43.174Z,4.07
2023-04-06T13:09:26.083Z,4.40
2023-04-06T13:12:08.945Z,4.18
2023-04-06T13:14:53.627Z,4.40
2023-04-06T13:17:36.790Z,3.78
2023-04-06T13:20:19.827Z,4.32
2023-04-06T13:23:02.578Z,4.40
2023-04-06T13:25:45.520Z,4.47
2023-04-06T13:28:28.604Z,4.55
2023-04-06T13:31:12.841Z,4.10
2023-04-06T13:33:55.883Z,4.20
2023-04-06T13:36:39.728Z,4.22
2023-04-06T13:39:22.638Z,4.10
2023-04-06T13:42:05.583Z,4.57
2023-04-06T13:44:49.098Z,4.43
2023-04-06T13:47:34.018Z,4.20
2023-04-06T13:50:16.898Z,4.70
2023-04-06T13:52:59.621Z,4.68
2023-04-06T13:55:42.296Z,4.18
2023-04-06T13:58:25.136Z,4.45
2023-04-06T14:01:10.618Z,4.22
2023-04-06T14:03:55.398Z,4.22
2023-04-06T14:06:38.923Z,4.10
2023-04-06T14:09:21.715Z,4.22
2023-04-06T14:12:04.434Z,4.45
2023-04-06T14:14:47.062Z,4.47
2023-04-06T14:17:29.727Z,4.32
2023-04-06T14:20:15.736Z,4.75
2023-04-06T14:22:58.615Z,4.40
2023-04-06T14:25:41.401Z,4.18
2023-04-06T14:28:24.694Z,4.43
2023-04-06T14:31:12.559Z,4.40
2023-04-06T14:33:55.633Z,4.47
2023-04-06T14:36:39.619Z,4.47
2023-04-06T14:39:22.375Z,4.75
2023-04-06T14:42:05.060Z,4.57
2023-04-06T14:44:47.665Z,4.60
2023-04-06T14:47:30.267Z,4.35
2023-04-06T14:50:12.981Z,4.47
2023-04-06T14:52:56.977Z,4.85
2023-04-06T14:55:41.365Z,5.07
2023-04-06T14:58:24.599Z,4.53
2023-04-06T15:01:07.570Z,4.93
2023-04-06T15:03:50.606Z,4.78
2023-04-06T15:06:33.663Z,4.80
2023-04-06T15:09:17.702Z,5.00
2023-04-06T15:12:01.354Z,4.72
2023-04-06T15:14:43.955Z,4.60
2023-04-06T15:17:27.408Z,4.10
2023-04-06T15:20:10.511Z,4.38
2023-04-06T15:22:53.102Z,4.53
2023-04-06T15:25:37.102Z,4.90
2023-04-06T15:28:19.770Z,4.32
2023-04-06T15:31:06.799Z,4.40
2023-04-06T15:33:51.611Z,4.72
2023-04-06T15:36:35.043Z,4.30
2023-04-06T15:39:17.825Z,4.63
2023-04-06T15:42:01.913Z,4.40
2023-04-06T15:44:44.669Z,4.50
2023-04-06T15:47:27.406Z,4.18
2023-04-06T15:50:10.597Z,4.55
2023-04-06T15:52:53.274Z,4.40
2023-04-06T15:55:35.923Z,4.35
2023-04-06T15:58:19.898Z,4.18
2023-04-06T16:01:02.586Z,3.97
2023-04-06T16:03:46.047Z,4.70
2023-04-06T16:06:28.729Z,4.70
2023-04-06T16:09:11.379Z,5.00
2023-04-06T16:11:54.143Z,4.47
2023-04-06T16:14:38.205Z,4.32
2023-04-06T16:17:21.521Z,4.50
2023-04-06T16:20:04.652Z,4.05
2023-04-06T16:22:47.750Z,4.40
2023-04-06T16:25:30.778Z,4.82
2023-04-06T16:28:13.542Z,4.70
2023-04-06T16:30:57.970Z,4.55
2023-04-06T16:33:42.092Z,4.20
2023-04-06T16:36:24.932Z,4.40
2023-04-06T16:39:07.650Z,4.75
2023-04-06T16:41:50.212Z,4.90
2023-04-06T16:44:32.840Z,4.80
2023-04-06T16:47:17.486Z,4.30
2023-04-06T16:53:02.861Z,5.30
2023-04-06T16:55:45.635Z,4.65
2023-04-06T16:58:28.210Z,4.80
2023-04-06T17:01:18.452Z,4.22
2023-04-06T17:04:02.893Z,4.30
2023-04-06T17:06:45.798Z,4.38
2023-04-06T17:09:28.421Z,4.30
2023-04-06T17:12:11.147Z,4.60
2023-04-06T17:14:53.775Z,4.22
2023-04-06T17:17:37.635Z,4.32
2023-04-06T17:20:21.984Z,4.15
2023-04-06T17:23:05.037Z,4.53
2023-04-06T17:25:47.622Z,4.68
2023-04-06T17:28:32.888Z,4.43
2023-04-06T17:31:15.833Z,4.80
2023-04-06T17:34:00.061Z,4.32
2023-04-06T17:36:44.125Z,4.40
2023-04-06T17:39:26.814Z,4.35
2023-04-06T17:42:09.606Z,4.55
2023-04-06T17:44:53.236Z,4.75
2023-04-06T17:47:36.551Z,4.22
2023-04-06T17:50:19.487Z,4.65
2023-04-06T17:53:03.602Z,4.57
2023-04-06T17:55:46.609Z,4.40
2023-04-06T17:58:29.259Z,4.55
2023-04-06T18:01:12.155Z,4.47
2023-04-06T18:03:54.891Z,4.38
2023-04-06T18:06:37.871Z,4.25
2023-04-06T18:09:21.907Z,4.40
2023-04-06T18:12:04.676Z,4.80
2023-04-06T18:14:47.425Z,4.30
2023-04-06T18:17:30.490Z,4.50
2023-04-06T18:20:15.027Z,4.68
2023-04-06T18:22:58.551Z,5.10
2023-04-06T18:25:42.692Z,5.18
2023-04-06T18:28:25.453Z,5.30
2023-04-06T18:31:08.220Z,5.18
2023-04-06T18:33:52.924Z,4.78
2023-04-06T18:36:37.067Z,4.80
2023-04-06T18:39:19.878Z,4.53
2023-04-06T18:42:04.129Z,4.57
2023-04-06T18:44:46.911Z,4.30
2023-04-06T18:47:29.639Z,5.03
2023-04-06T18:50:12.458Z,4.63
2023-04-06T18:52:55.146Z,4.65
2023-04-06T18:55:38.366Z,4.15
2023-04-06T18:58:22.419Z,4.40
2023-04-06T19:01:05.175Z,3.85
2023-04-06T19:03:48.103Z,4.53
2023-04-06T19:06:31.177Z,4.28
2023-04-06T19:09:13.890Z,4.85
2023-04-06T19:11:57.536Z,4.53
2023-04-06T19:14:41.552Z,5.05
2023-04-06T19:17:24.300Z,5.20
2023-04-06T19:20:07.527Z,4.72
2023-04-06T19:22:50.847Z,4.82
2023-04-06T19:25:33.456Z,5.60
2023-04-06T19:28:16.435Z,5.60
2023-04-06T19:31:01.509Z,5.68
2023-04-06T19:33:44.879Z,5.68
2023-04-06T19:36:28.295Z,5.97
2023-04-06T19:39:11.129Z,5.80
2023-04-06T19:41:53.978Z,6.60
2023-04-06T19:44:36.951Z,7.07
2023-04-06T19:47:20.947Z,6.70
2023-04-06T19:50:03.830Z,7.15
2023-04-06T19:52:46.595Z,6.78
2023-04-06T19:55:29.356Z,7.45
2023-04-06T19:58:11.988Z,7.30
2023-04-06T20:00:54.681Z,7.50
2023-04-06T20:03:38.957Z,6.95
2023-04-06T20:06:21.761Z,7.55
2023-04-06T20:09:04.523Z,6.95
2023-04-06T20:11:47.426Z,6.82
2023-04-06T20:14:30.187Z,6.75
2023-04-06T20:17:12.897Z,7.40
2023-04-06T20:19:56.861Z,7.13
2023-04-06T20:22:39.542Z,7.22
2023-04-06T20:25:22.476Z,6.57
2023-04-06T20:28:05.265Z,6.93
2023-04-06T20:30:51.834Z,6.55
2023-04-06T20:33:35.309Z,6.68
2023-04-06T20:36:21.611Z,6.80
2023-04-06T20:39:05.007Z,6.97
2023-04-06T20:41:47.622Z,7.70
2023-04-06T20:44:31.174Z,7.13
2023-04-06T20:47:13.773Z,6.57
2023-04-06T20:49:56.585Z,7.60
2023-04-06T20:52:40.638Z,6.97
2023-04-06T20:55:23.339Z,7.05
2023-04-06T20:58:06.021Z,7.15
2023-04-06T21:00:49.684Z,7.18
2023-04-06T21:03:32.584Z,6.45
2023-04-06T21:06:15.744Z,6.75
2023-04-06T21:09:00.039Z,7.78
2023-04-06T21:11:42.830Z,7.50
2023-04-06T21:14:26.292Z,6.43
2023-04-06T21:17:09.290Z,6.57
2023-04-06T21:19:52.030Z,6.97
2023-04-06T21:22:34.709Z,6.68
2023-04-06T21:25:18.938Z,7.30
2023-04-06T21:28:01.653Z,6.65
2023-04-06T21:30:44.417Z,6.72
2023-04-06T21:33:27.185Z,6.85
2023-04-06T21:36:10.089Z,6.18
2023-04-06T21:38:52.803Z,6.65
2023-04-06T21:41:36.956Z,6.65
2023-04-06T21:44:19.766Z,6.90
2023-04-06T21:47:02.662Z,6.72
2023-04-06T21:49:45.493Z,6.93
2023-04-06T21:52:28.205Z,6.72
2023-04-06T21:55:11.429Z,6.75
2023-04-06T21:57:55.579Z,6.25
2023-04-06T22:00:38.342Z,6.53
2023-04-06T22:03:21.354Z,6.30
2023-04-06T22:06:04.357Z,6.28
2023-04-06T22:08:48.067Z,6.25
2023-04-06T22:11:30.884Z,5.78
2023-04-06T22:14:14.941Z,6.03
2023-04-06T22:16:57.628Z,5.88
2023-04-06T22:19:40.301Z,6.15
2023-04-06T22:22:23.064Z,6.30
2023-04-06T22:25:06.079Z,5.72
2023-04-06T22:27:48.794Z,6.40
2023-04-06T22:30:32.846Z,5.50
2023-04-06T22:33:15.718Z,4.95
2023-04-06T22:35:58.446Z,5.53
2023-04-06T22:38:41.189Z,5.85
2023-04-06T22:41:23.805Z,5.55
2023-04-06T22:44:06.501Z,5.78
2023-04-06T22:46:50.537Z,5.70
2023-04-06T22:49:33.249Z,5.45
2023-04-06T22:52:16.072Z,5.80
2023-04-06T22:54:58.742Z,5.72
2023-04-06T22:57:41.564Z,5.93
2023-04-06T23:00:24.224Z,5.50
2023-04-06T23:03:08.364Z,5.78
2023-04-06T23:05:51.187Z,5.55
2023-04-06T23:08:33.841Z,6.25
2023-04-06T23:11:16.515Z,5.75
2023-04-06T23:13:59.141Z,5.63
2023-04-06T23:16:41.931Z,6.13
2023-04-06T23:19:26.222Z,5.78
2023-04-06T23:22:08.868Z,6.22
2023-04-06T23:24:51.503Z,5.40
2023-04-06T23:27:34.113Z,6.05
2023-04-06T23:30:16.744Z,5.50
2023-04-06T23:32:59.495Z,5.63
2023-04-06T23:35:43.443Z,5.75
2023-04-06T23:38:26.593Z,6.18
2023-04-06T23:41:09.205Z,5.70
2023-04-06T23:43:52.413Z,5.50
2023-04-06T23:46:35.057Z,5.50
2023-04-06T23:49:17.841Z,5.47
2023-04-06T23:52:01.810Z,5.60
2023-04-06T23:54:44.458Z,5.93
2023-04-06T23:57:27.156Z,5.72
